createdAt,value
2023-04-01T00:01:15.815Z,98526.92
2023-04-01T00:03:44.517Z,98520.33
2023-04-01T00:06:15.644Z,98514.88
2023-04-01T00:08:43.705Z,98513.90
2023-04-01T00:11:11.503Z,98508.84
2023-04-01T00:13:39.523Z,98508.40
2023-04-01T00:16:19.940Z,98506.66
2023-04-01T00:18:49.474Z,98509.86
2023-04-01T00:21:17.662Z,98513.27
2023-04-01T00:23:45.367Z,98516.27
2023-04-01T00:26:13.665Z,98515.66
2023-04-01T00:28:41.785Z,98512.90
2023-04-01T00:31:11.388Z,98513.09
2023-04-01T00:33:41.013Z,98509.23
2023-04-01T00:36:17.921Z,98506.96
2023-04-01T00:38:46.918Z,98505.15
2023-04-01T00:41:16.693Z,98502.44
2023-04-01T00:43:47.386Z,98503.67
2023-04-01T00:46:15.571Z,98501.11
2023-04-01T00:48:49.463Z,98497.21
2023-04-01T00:51:22.873Z,98492.97
2023-04-01T00:53:53.608Z,98491.34
2023-04-01T00:56:27.972Z,98489.50
2023-04-01T00:59:01.527Z,98495.09
2023-04-01T01:01:32.300Z,98494.73
2023-04-01T01:04:00.739Z,98496.42
2023-04-01T01:06:40.349Z,98495.08
2023-04-01T01:09:17.471Z,98494.08
2023-04-01T01:11:56.084Z,98493.36
2023-04-01T01:14:29.661Z,98493.52
2023-04-01T01:17:13.205Z,98493.31
2023-04-01T01:19:57.107Z,98494.34
2023-04-01T01:22:50.855Z,98490.59
2023-04-01T01:25:55.905Z,98490.21
2023-04-01T01:28:51.789Z,98495.83
2023-04-01T01:31:37.790Z,98495.82
2023-04-01T01:34:14.647Z,98502.58
2023-04-01T01:36:46.160Z,98499.98
2023-04-01T01:39:15.457Z,98504.58
2023-04-01T01:41:46.097Z,98505.90
2023-04-01T01:44:16.401Z,98502.86
2023-04-01T01:46:45.840Z,98502.34
2023-04-01T01:49:16.024Z,98499.93
2023-04-01T01:51:44.287Z,98498.40
2023-04-01T01:54:17.559Z,98492.98
2023-04-01T01:56:49.665Z,98492.35
2023-04-01T01:59:21.982Z,98490.89
2023-04-01T02:01:53.079Z,98486.73
2023-04-01T02:04:22.710Z,98484.90
2023-04-01T02:07:04.461Z,98481.02
2023-04-01T02:09:32.285Z,98485.27
2023-04-01T02:12:05.099Z,98485.61
2023-04-01T02:14:53.898Z,98481.02
2023-04-01T02:17:24.476Z,98481.20
2023-04-01T02:20:00.357Z,98480.02
2023-04-01T02:22:32.612Z,98478.54
2023-04-01T02:25:07.266Z,98477.52
2023-04-01T02:27:35.512Z,98475.18
2023-04-01T02:30:04.034Z,98473.98
2023-04-01T02:32:34.329Z,98476.73
2023-04-01T02:35:06.879Z,98477.64
2023-04-01T02:37:36.322Z,98477.36
2023-04-01T02:40:08.482Z,98477.22
2023-04-01T02:42:36.106Z,98477.42
2023-04-01T02:45:04.871Z,98479.18
2023-04-01T02:47:32.758Z,98482.02
2023-04-01T02:50:00.593Z,98479.44
2023-04-01T02:52:30.403Z,98478.04
2023-04-01T02:54:58.650Z,98481.88
2023-04-01T02:57:27.019Z,98482.02
2023-04-01T02:59:54.839Z,98483.86
2023-04-01T03:02:22.679Z,98488.44
2023-04-01T03:04:50.503Z,98490.46
2023-04-01T03:07:18.169Z,98488.73
2023-04-01T03:09:45.808Z,98489.81
2023-04-01T03:12:13.508Z,98492.86
2023-04-01T03:14:41.271Z,98491.15
2023-04-01T03:17:08.940Z,98493.89
2023-04-01T03:19:36.611Z,98498.67
2023-04-01T03:22:04.284Z,98498.55
2023-04-01T03:24:31.920Z,98499.29
2023-04-01T03:26:59.636Z,98502.52
2023-04-01T03:29:27.335Z,98500.67
2023-04-01T03:31:55.028Z,98499.48
2023-04-01T03:34:22.680Z,98502.05
2023-04-01T03:36:50.685Z,98503.73
2023-04-01T03:39:19.766Z,98505.45
2023-04-01T03:41:47.648Z,98508.36
2023-04-01T03:44:15.467Z,98509.73
2023-04-01T03:46:43.344Z,98510.98
2023-04-01T03:49:12.909Z,98514.06
2023-04-01T03:51:42.671Z,98513.42
2023-04-01T03:54:11.244Z,98517.20
2023-04-01T03:56:39.259Z,98517.02
2023-04-01T03:59:08.530Z,98521.61
2023-04-01T04:01:36.499Z,98521.66
2023-04-01T04:04:04.642Z,98526.78
2023-04-01T04:06:33.516Z,98533.91
2023-04-01T04:09:01.201Z,98536.55
2023-04-01T04:11:28.838Z,98537.59
2023-04-01T04:13:57.282Z,98542.55
2023-04-01T04:16:26.282Z,98542.54
2023-04-01T04:18:54.153Z,98542.02
2023-04-01T04:21:21.894Z,98544.75
2023-04-01T04:23:49.681Z,98543.73
2023-04-01T04:26:17.360Z,98551.73
2023-04-01T04:28:45.173Z,98552.41
2023-04-01T04:31:20.152Z,98557.50
2023-04-01T04:33:48.549Z,98556.66
2023-04-01T04:36:16.601Z,98558.86
2023-04-01T04:38:44.358Z,98558.35
2023-04-01T04:41:13.984Z,98558.00
2023-04-01T04:43:42.923Z,98556.81
2023-04-01T04:46:11.282Z,98559.48
2023-04-01T04:48:38.944Z,98561.00
2023-04-01T04:51:06.810Z,98556.29
2023-04-01T04:53:34.488Z,98553.69
2023-04-01T04:56:02.144Z,98554.72
2023-04-01T04:58:29.868Z,98554.38
2023-04-01T05:00:57.630Z,98556.23
2023-04-01T05:03:25.647Z,98557.04
2023-04-01T05:05:55.841Z,98556.38
2023-04-01T05:08:23.480Z,98558.75
2023-04-01T05:10:51.137Z,98560.92
2023-04-01T05:13:19.163Z,98561.27
2023-04-01T05:15:46.960Z,98559.05
2023-04-01T05:18:14.722Z,98557.84
2023-04-01T05:20:48.368Z,98557.99
2023-04-01T05:23:16.391Z,98558.61
2023-04-01T05:25:46.160Z,98554.13
2023-04-01T05:28:14.065Z,98555.94
2023-04-01T05:30:42.910Z,98557.42
2023-04-01T05:33:13.129Z,98556.52
2023-04-01T05:35:41.637Z,98557.77
2023-04-01T05:38:09.346Z,98555.98
2023-04-01T05:40:37.025Z,98561.13
2023-04-01T05:43:04.691Z,98560.75
2023-04-01T05:45:32.620Z,98560.45
2023-04-01T05:48:00.691Z,98559.86
2023-04-01T05:50:28.461Z,98555.20
2023-04-01T05:52:56.301Z,98552.77
2023-04-01T05:55:24.308Z,98557.67
2023-04-01T05:57:52.060Z,98556.67
2023-04-01T06:00:21.013Z,98561.39
2023-04-01T06:02:49.321Z,98564.89
2023-04-01T06:05:26.424Z,98563.02
2023-04-01T06:08:00.441Z,98567.06
2023-04-01T06:10:48.703Z,98568.09
2023-04-01T06:13:25.525Z,98567.55
2023-04-01T06:16:02.447Z,98568.16
2023-04-01T06:18:52.857Z,98569.24
2023-04-01T06:21:49.975Z,98568.69
2023-04-01T06:24:34.334Z,98567.48
2023-04-01T06:27:33.169Z,98569.80
2023-04-01T06:30:25.117Z,98573.05
2023-04-01T06:33:03.322Z,98574.97
2023-04-01T06:35:50.824Z,98575.49
2023-04-01T06:38:34.875Z,98577.06
2023-04-01T06:41:39.926Z,98579.23
2023-04-01T06:44:38.043Z,98581.84
2023-04-01T06:47:24.338Z,98584.05
2023-04-01T06:50:23.418Z,98582.38
2023-04-01T06:53:09.505Z,98583.74
2023-04-01T06:55:49.825Z,98583.30
2023-04-01T06:58:24.545Z,98580.11
2023-04-01T07:00:56.077Z,98580.65
2023-04-01T07:03:36.185Z,98584.13
2023-04-01T07:06:17.213Z,98586.77
2023-04-01T07:08:46.137Z,98587.44
2023-04-01T07:11:29.516Z,98586.77
2023-04-01T07:14:06.074Z,98589.27
2023-04-01T07:16:39.379Z,98588.75
2023-04-01T07:19:22.934Z,98588.93
2023-04-01T07:22:06.264Z,98585.65
2023-04-01T07:24:42.612Z,98585.90
2023-04-01T07:27:13.020Z,98587.23
2023-04-01T07:29:41.312Z,98589.23
2023-04-01T07:32:18.012Z,98588.31
2023-04-01T07:34:51.419Z,98589.60
2023-04-01T07:38:07.492Z,98591.81
2023-04-01T07:41:09.149Z,98591.77
2023-04-01T07:43:56.753Z,98587.95
2023-04-01T07:46:54.446Z,98587.08
2023-04-01T07:49:34.771Z,98592.49
2023-04-01T07:52:08.317Z,98593.52
2023-04-01T07:54:50.323Z,98591.63
2023-04-01T07:57:25.853Z,98596.30
2023-04-01T08:00:21.174Z,98594.58
2023-04-01T08:03:05.804Z,98598.97
2023-04-01T08:05:58.767Z,98602.95
2023-04-01T08:08:41.874Z,98599.66
2023-04-01T08:11:23.173Z,98606.92
2023-04-01T08:14:00.004Z,98608.17
2023-04-01T08:16:40.355Z,98608.23
2023-04-01T08:19:23.471Z,98607.80
2023-04-01T08:21:58.671Z,98607.98
2023-04-01T08:24:44.267Z,98611.67
2023-04-01T08:27:30.544Z,98613.48
2023-04-01T08:30:17.311Z,98616.50
2023-04-01T08:32:59.525Z,98613.21
2023-04-01T08:35:33.006Z,98616.81
2023-04-01T08:38:09.360Z,98619.18
2023-04-01T08:40:53.068Z,98618.67
2023-04-01T08:43:39.486Z,98620.27
2023-04-01T08:46:19.103Z,98630.23
2023-04-01T08:49:14.230Z,98628.15
2023-04-01T08:52:02.829Z,98633.52
2023-04-01T08:55:01.637Z,98637.20
2023-04-01T08:57:54.688Z,98637.17
2023-04-01T09:00:56.046Z,98637.66
2023-04-01T09:03:38.996Z,98644.86
2023-04-01T09:06:44.099Z,98642.09
2023-04-01T09:09:36.171Z,98642.32
2023-04-01T09:12:31.522Z,98644.27
2023-04-01T09:15:25.808Z,98642.92
2023-04-01T09:18:17.344Z,98643.80
2023-04-01T09:21:16.283Z,98640.10
2023-04-01T09:23:43.915Z,98636.95
2023-04-01T09:26:36.474Z,98639.80
2023-04-01T09:29:29.465Z,98645.42
2023-04-01T09:32:48.352Z,98646.20
2023-04-01T09:35:45.097Z,98644.08
2023-04-01T09:38:29.594Z,98649.95
2023-04-01T09:41:19.933Z,98646.84
2023-04-01T09:43:59.924Z,98647.27
2023-04-01T09:46:46.583Z,98645.38
2023-04-01T09:49:42.727Z,98649.13
2023-04-01T09:52:23.003Z,98650.85
2023-04-01T09:55:15.542Z,98652.92
2023-04-01T09:58:11.231Z,98649.02
2023-04-01T10:01:09.096Z,98650.04
2023-04-01T10:04:01.351Z,98650.42
2023-04-01T10:06:42.575Z,98649.02
2023-04-01T10:09:28.716Z,98652.39
2023-04-01T10:12:35.614Z,98654.42
2023-04-01T10:15:24.798Z,98650.09
2023-04-01T10:18:11.204Z,98649.73
2023-04-01T10:20:39.624Z,98653.59
2023-04-01T10:23:52.685Z,98650.30
2023-04-01T10:26:42.228Z,98653.91
2023-04-01T10:29:37.649Z,98652.42
2023-04-01T10:32:17.468Z,98655.20
2023-04-01T10:35:11.076Z,98654.24
2023-04-01T10:37:47.696Z,98657.85
2023-04-01T10:40:35.763Z,98658.79
2023-04-01T10:43:22.167Z,98659.34
2023-04-01T10:46:18.322Z,98660.34
2023-04-01T10:49:05.098Z,98656.69
2023-04-01T10:51:51.216Z,98658.48
2023-04-01T10:54:37.506Z,98658.28
2023-04-01T10:57:42.919Z,98661.43
2023-04-01T11:00:35.593Z,98661.16
2023-04-01T11:03:41.624Z,98661.94
2023-04-01T11:06:34.338Z,98665.34
2023-04-01T11:09:49.159Z,98667.28
2023-04-01T11:12:25.848Z,98668.31
2023-04-01T11:15:15.534Z,98672.08
2023-04-01T11:18:04.682Z,98669.79
2023-04-01T11:21:02.039Z,98671.05
2023-04-01T11:24:04.476Z,98672.20
2023-04-01T11:26:59.606Z,98671.54
2023-04-01T11:29:44.370Z,98670.79
2023-04-01T11:32:39.957Z,98669.02
2023-04-01T11:35:49.796Z,98671.77
2023-04-01T11:38:42.886Z,98673.36
2023-04-01T11:41:29.232Z,98671.36
2023-04-01T11:44:20.434Z,98669.52
2023-04-01T11:46:51.665Z,98669.85
2023-04-01T11:49:30.786Z,98672.24
2023-04-01T11:52:10.481Z,98674.59
2023-04-01T11:55:12.051Z,98678.75
2023-04-01T11:58:16.040Z,98680.18
2023-04-01T12:01:21.031Z,98676.55
2023-04-01T12:04:08.152Z,98678.89
2023-04-01T12:07:04.009Z,98674.77
2023-04-01T12:09:51.654Z,98675.25
2023-04-01T12:12:33.555Z,98674.48
2023-04-01T12:15:28.244Z,98675.63
2023-04-01T12:18:23.353Z,98676.00
2023-04-01T12:21:04.791Z,98675.54
2023-04-01T12:23:56.964Z,98679.66
2023-04-01T12:26:36.116Z,98677.04
2023-04-01T12:29:23.758Z,98677.07
2023-04-01T12:32:02.559Z,98673.66
2023-04-01T12:34:59.550Z,98674.76
2023-04-01T12:37:51.941Z,98674.14
2023-04-01T12:40:42.432Z,98672.89
2023-04-01T12:43:38.535Z,98676.59
2023-04-01T12:46:12.988Z,98677.27
2023-04-01T12:49:11.003Z,98678.16
2023-04-01T12:51:57.897Z,98677.71
2023-04-01T12:54:44.900Z,98675.80
2023-04-01T12:57:34.705Z,98676.46
2023-04-01T13:00:21.746Z,98678.48
2023-04-01T13:03:11.740Z,98682.85
2023-04-01T13:06:08.423Z,98677.80
2023-04-01T13:08:52.172Z,98680.05
2023-04-01T13:11:53.776Z,98686.98
2023-04-01T13:14:35.188Z,98691.93
2023-04-01T13:17:24.152Z,98696.05
2023-04-01T13:20:06.137Z,98705.61
2023-04-01T13:22:49.293Z,98704.23
2023-04-01T13:25:30.104Z,98709.86
2023-04-01T13:28:07.348Z,98716.14
2023-04-01T13:31:23.410Z,98721.23
2023-04-01T13:34:11.292Z,98718.52
2023-04-01T13:37:20.605Z,98722.11
2023-04-01T13:40:32.848Z,98725.34
2023-04-01T13:43:09.511Z,98728.42
2023-04-01T13:46:22.770Z,98731.27
2023-04-01T13:49:02.399Z,98733.93
2023-04-01T13:51:53.660Z,98738.47
2023-04-01T13:54:32.713Z,98737.68
2023-04-01T13:57:22.425Z,98742.73
2023-04-01T14:00:11.878Z,98745.39
2023-04-01T14:02:56.087Z,98757.63
2023-04-01T14:05:48.931Z,98762.96
2023-04-01T14:08:35.601Z,98765.27
2023-04-01T14:11:20.312Z,98768.34
2023-04-01T14:14:15.721Z,98771.59
2023-04-01T14:17:04.555Z,98778.09
2023-04-01T14:20:18.481Z,98784.73
2023-04-01T14:23:04.867Z,98783.25
2023-04-01T14:26:02.414Z,98791.27
2023-04-01T14:28:54.611Z,98788.70
2023-04-01T14:31:56.137Z,98794.48
2023-04-01T14:34:38.968Z,98794.73
2023-04-01T14:37:16.818Z,98795.23
2023-04-01T14:40:24.306Z,98798.56
2023-04-01T14:43:07.030Z,98801.30
2023-04-01T14:46:06.438Z,98805.42
2023-04-01T14:48:39.784Z,98807.25
2023-04-01T14:51:17.964Z,98814.17
2023-04-01T14:54:01.339Z,98817.85
2023-04-01T14:56:45.911Z,98818.28
2023-04-01T14:59:28.399Z,98821.30
2023-04-01T15:02:04.940Z,98828.25
2023-04-01T15:04:44.926Z,98830.26
2023-04-01T15:07:32.642Z,98833.91
2023-04-01T15:10:07.477Z,98836.08
2023-04-01T15:13:10.881Z,98845.50
2023-04-01T15:16:00.356Z,98848.80
2023-04-01T15:18:45.968Z,98847.39
2023-04-01T15:21:25.849Z,98857.06
2023-04-01T15:23:56.201Z,98858.93
2023-04-01T15:26:54.779Z,98863.27
2023-04-01T15:29:49.165Z,98866.02
2023-04-01T15:32:46.019Z,98874.11
2023-04-01T15:35:38.393Z,98875.98
2023-04-01T15:38:42.139Z,98879.41
2023-04-01T15:41:27.812Z,98883.01
2023-04-01T15:43:55.525Z,98883.67
2023-04-01T15:46:47.743Z,98891.56
2023-04-01T15:49:42.289Z,98891.95
2023-04-01T15:52:39.322Z,98900.56
2023-04-01T15:55:07.398Z,98904.39
2023-04-01T15:57:49.994Z,98908.96
2023-04-01T16:00:28.918Z,98914.23
2023-04-01T16:03:24.779Z,98912.92
2023-04-01T16:06:09.930Z,98925.34
2023-04-01T16:08:59.314Z,98928.61
2023-04-01T16:12:03.081Z,98938.35
2023-04-01T16:14:36.506Z,98940.41
2023-04-01T16:17:28.612Z,98947.04
2023-04-01T16:20:03.596Z,98947.42
2023-04-01T16:22:36.334Z,98949.64
2023-04-01T16:25:36.013Z,98952.36
2023-04-01T16:28:33.020Z,98956.45
2023-04-01T16:31:31.848Z,98957.16
2023-04-01T16:34:11.742Z,98962.94
2023-04-01T16:36:52.806Z,98968.08
2023-04-01T16:39:29.874Z,98973.50
2023-04-01T16:42:25.903Z,98976.41
2023-04-01T16:45:01.209Z,98980.70
2023-04-01T16:47:57.487Z,98985.79
2023-04-01T16:50:32.739Z,98988.70
2023-04-01T16:53:21.090Z,98991.93
2023-04-01T16:56:01.845Z,99001.14
2023-04-01T16:58:56.091Z,99002.37
2023-04-01T17:01:33.965Z,99008.55
2023-04-01T17:04:15.704Z,99014.22
2023-04-01T17:07:06.601Z,99018.65
2023-04-01T17:10:10.634Z,99022.59
2023-04-01T17:12:48.197Z,99029.40
2023-04-01T17:15:34.215Z,99033.36
2023-04-01T17:18:33.130Z,99035.44
2023-04-01T17:21:10.909Z,99042.09
2023-04-01T17:23:52.449Z,99043.32
2023-04-01T17:26:43.418Z,99047.96
2023-04-01T17:29:32.968Z,99049.36
2023-04-01T17:32:49.150Z,99054.46
2023-04-01T17:35:28.988Z,99061.12
2023-04-01T17:38:23.116Z,99066.77
2023-04-01T17:41:52.419Z,99069.88
2023-04-01T17:44:23.013Z,99078.58
2023-04-01T17:47:24.170Z,99082.85
2023-04-01T17:50:09.133Z,99090.69
2023-04-01T17:52:55.641Z,99099.38
2023-04-01T17:55:38.177Z,99100.12
2023-04-01T17:58:30.072Z,99105.25
2023-04-01T18:01:06.853Z,99111.59
2023-04-01T18:03:34.623Z,99118.89
2023-04-01T18:06:29.780Z,99120.64
2023-04-01T18:09:01.983Z,99128.14
2023-04-01T18:11:53.762Z,99130.89
2023-04-01T18:14:27.653Z,99135.52
2023-04-01T18:17:28.565Z,99141.13
2023-04-01T18:20:10.182Z,99146.08
2023-04-01T18:22:56.345Z,99149.52
2023-04-01T18:25:28.720Z,99153.64
2023-04-01T18:28:22.395Z,99157.38
2023-04-01T18:30:58.773Z,99157.77
2023-04-01T18:33:47.364Z,99165.95
2023-04-01T18:36:53.006Z,99172.25
2023-04-01T18:39:40.626Z,99177.55
2023-04-01T18:42:42.352Z,99183.50
2023-04-01T18:45:23.881Z,99186.04
2023-04-01T18:48:03.712Z,99187.77
2023-04-01T18:50:54.029Z,99188.45
2023-04-01T18:53:30.847Z,99191.69
2023-04-01T18:55:58.466Z,99195.27
2023-04-01T18:58:36.517Z,99204.27
2023-04-01T19:01:38.249Z,99205.48
2023-04-01T19:04:31.892Z,99211.94
2023-04-01T19:07:19.563Z,99211.96
2023-04-01T19:09:50.328Z,99217.74
2023-04-01T19:12:27.119Z,99220.13
2023-04-01T19:15:08.415Z,99220.48
2023-04-01T19:18:14.929Z,99225.44
2023-04-01T19:20:58.928Z,99228.84
2023-04-01T19:24:16.904Z,99228.52
2023-04-01T19:27:03.507Z,99233.95
2023-04-01T19:29:48.064Z,99237.19
2023-04-01T19:32:34.392Z,99246.00
2023-04-01T19:35:19.482Z,99252.95
2023-04-01T19:38:20.499Z,99253.47
2023-04-01T19:40:54.679Z,99260.95
2023-04-01T19:43:48.510Z,99272.15
2023-04-01T19:46:40.992Z,99276.23
2023-04-01T19:49:34.801Z,99276.76
2023-04-01T19:52:14.793Z,99275.76
2023-04-01T19:54:58.271Z,99279.84
2023-04-01T19:57:44.574Z,99284.27
2023-04-01T20:00:33.406Z,99287.31
2023-04-01T20:03:38.909Z,99288.85
2023-04-01T20:06:39.461Z,99294.29
2023-04-01T20:09:27.228Z,99293.61
2023-04-01T20:12:22.901Z,99296.66
2023-04-01T20:14:56.351Z,99298.86
2023-04-01T20:17:31.645Z,99293.10
2023-04-01T20:20:01.786Z,99295.48
2023-04-01T20:22:39.707Z,99300.23
2023-04-01T20:25:16.545Z,99304.62
2023-04-01T20:27:53.209Z,99304.61
2023-04-01T20:31:02.592Z,99303.10
2023-04-01T20:33:46.870Z,99305.48
2023-04-01T20:36:28.211Z,99311.58
2023-04-01T20:39:20.671Z,99313.61
2023-04-01T20:42:10.303Z,99318.73
2023-04-01T20:44:58.959Z,99321.95
2023-04-01T20:47:48.788Z,99325.17
2023-04-01T20:50:31.866Z,99329.77
2023-04-01T20:53:21.639Z,99334.70
2023-04-01T20:56:23.063Z,99337.77
2023-04-01T20:59:11.646Z,99337.25
2023-04-01T21:01:54.041Z,99343.00
2023-04-01T21:04:59.474Z,99346.06
2023-04-01T21:08:21.841Z,99346.94
2023-04-01T21:11:11.542Z,99352.18
2023-04-01T21:13:55.358Z,99354.20
2023-04-01T21:17:07.722Z,99358.27
2023-04-01T21:20:01.308Z,99361.67
2023-04-01T21:22:37.818Z,99369.64
2023-04-01T21:25:24.308Z,99369.98
2023-04-01T21:28:23.304Z,99375.91
2023-04-01T21:31:09.548Z,99377.96
2023-04-01T21:33:45.874Z,99382.04
2023-04-01T21:36:42.396Z,99384.92
2023-04-01T21:39:34.936Z,99384.41
2023-04-01T21:42:22.813Z,99386.79
2023-04-01T21:45:14.192Z,99384.24
2023-04-01T21:48:11.009Z,99385.27
2023-04-01T21:51:10.484Z,99391.05
2023-04-01T21:53:51.641Z,99391.55
2023-04-01T21:56:50.917Z,99396.30
2023-04-01T21:59:30.715Z,99401.38
2023-04-01T22:02:36.189Z,99399.02
2023-04-01T22:05:18.580Z,99400.88
2023-04-01T22:07:58.762Z,99410.70
2023-04-01T22:10:46.981Z,99409.17
2023-04-01T22:13:26.941Z,99413.77
2023-04-01T22:16:19.851Z,99414.11
2023-04-01T22:18:54.233Z,99420.71
2023-04-01T22:21:31.218Z,99420.38
2023-04-01T22:24:27.631Z,99423.42
2023-04-01T22:27:04.119Z,99425.28
2023-04-01T22:29:57.919Z,99429.02
2023-04-01T22:32:36.749Z,99430.88
2023-04-01T22:35:09.786Z,99434.92
2023-04-01T22:37:41.517Z,99440.69
2023-04-01T22:40:18.870Z,99441.20
2023-04-01T22:42:54.535Z,99444.75
2023-04-01T22:45:30.326Z,99449.33
2023-04-01T22:48:16.788Z,99450.17
2023-04-01T22:51:07.013Z,99452.02
2023-04-01T22:54:05.878Z,99452.89
2023-04-01T22:56:59.962Z,99457.12
2023-04-01T22:59:40.121Z,99457.61
2023-04-01T23:02:18.392Z,99461.17
2023-04-01T23:04:53.422Z,99459.31
2023-04-01T23:07:49.909Z,99462.20
2023-04-01T23:10:27.277Z,99461.86
2023-04-01T23:12:59.909Z,99466.25
2023-04-01T23:15:29.523Z,99466.41
2023-04-01T23:18:17.873Z,99465.05
2023-04-01T23:20:54.392Z,99467.59
2023-04-01T23:23:33.493Z,99470.30
2023-04-01T23:26:22.052Z,99477.06
2023-04-01T23:28:53.174Z,99477.76
2023-04-01T23:31:33.959Z,99481.80
2023-04-01T23:34:14.095Z,99483.68
2023-04-01T23:36:48.726Z,99487.06
2023-04-01T23:39:38.108Z,99489.95
2023-04-01T23:42:07.954Z,99491.64
2023-04-01T23:44:37.226Z,99494.85
2023-04-01T23:47:07.428Z,99495.52
2023-04-01T23:49:40.562Z,99501.79
2023-04-01T23:52:28.839Z,99501.63
2023-04-01T23:55:02.646Z,99507.38
2023-04-01T23:57:33.166Z,99506.86
